sensor_id;sensor_type;location;lat;lon;timestamp;temperature;humidity
20998;DHT22;10657;51.276;6.390;2023-04-24T00:01:05;11.10;99.90
20998;DHT22;10657;51.276;6.390;2023-04-24T00:03:34;11.10;99.90
20998;DHT22;10657;51.276;6.390;2023-04-24T00:06:01;11.10;99.90
20998;DHT22;10657;51.276;6.390;2023-04-24T00:08:29;11.00;99.90
20998;DHT22;10657;51.276;6.390;2023-04-24T00:10:56;11.00;99.90
20998;DHT22;10657;51.276;6.390;2023-04-24T00:13:22;10.80;99.90
20998;DHT22;10657;51.276;6.390;2023-04-24T00:15:49;10.90;99.90
20998;DHT22;10657;51.276;6.390;2023-04-24T00:18:16;10.90;99.90
20998;DHT22;10657;51.276;6.390;2023-04-24T00:20:42;10.90;99.90
20998;DHT22;10657;51.276;6.390;2023-04-24T00:23:10;10.80;99.90
20998;DHT22;10657;51.276;6.390;2023-04-24T00:25:36;10.80;99.90
20998;DHT22;10657;51.276;6.390;2023-04-24T00:28:03;10.70;99.90
20998;DHT22;10657;51.276;6.390;2023-04-24T00:30:30;10.70;99.90
20998;DHT22;10657;51.276;6.390;2023-04-24T00:32:57;10.60;99.90
20998;DHT22;10657;51.276;6.390;2023-04-24T00:35:24;10.60;99.90
20998;DHT22;10657;51.276;6.390;2023-04-24T00:37:51;10.60;99.90
20998;DHT22;10657;51.276;6.390;2023-04-24T00:40:18;10.60;99.90
20998;DHT22;10657;51.276;6.390;2023-04-24T00:42:44;10.60;99.90
20998;DHT22;10657;51.276;6.390;2023-04-24T00:45:12;10.60;99.90
20998;DHT22;10657;51.276;6.390;2023-04-24T00:47:39;10.50;99.90
20998;DHT22;10657;51.276;6.390;2023-04-24T00:50:08;10.50;99.90
20998;DHT22;10657;51.276;6.390;2023-04-24T00:52:35;10.50;99.90
20998;DHT22;10657;51.276;6.390;2023-04-24T00:55:02;10.50;99.90
20998;DHT22;10657;51.276;6.390;2023-04-24T00:57:29;10.50;99.90
20998;DHT22;10657;51.276;6.390;2023-04-24T00:59:56;10.50;99.90
20998;DHT22;10657;51.276;6.390;2023-04-24T01:02:23;10.50;99.90
20998;DHT22;10657;51.276;6.390;2023-04-24T01:04:51;10.50;99.90
20998;DHT22;10657;51.276;6.390;2023-04-24T01:07:21;10.60;99.90
20998;DHT22;10657;51.276;6.390;2023-04-24T01:09:48;10.50;99.90
20998;DHT22;10657;51.276;6.390;2023-04-24T01:12:17;10.60;99.90
20998;DHT22;10657;51.276;6.390;2023-04-24T01:14:45;10.60;99.90
20998;DHT22;10657;51.276;6.390;2023-04-24T01:17:12;10.60;99.90
20998;DHT22;10657;51.276;6.390;2023-04-24T01:19:38;10.60;99.90
20998;DHT22;10657;51.276;6.390;2023-04-24T01:22:16;10.60;99.90
20998;DHT22;10657;51.276;6.390;2023-04-24T01:24:43;10.50;99.90
20998;DHT22;10657;51.276;6.390;2023-04-24T01:27:10;10.50;99.90
20998;DHT22;10657;51.276;6.390;2023-04-24T01:29:37;10.50;99.90
20998;DHT22;10657;51.276;6.390;2023-04-24T01:32:04;10.40;99.90
20998;DHT22;10657;51.276;6.390;2023-04-24T01:34:31;10.30;99.90
20998;DHT22;10657;51.276;6.390;2023-04-24T01:36:58;10.40;99.90
20998;DHT22;10657;51.276;6.390;2023-04-24T01:39:25;10.40;99.90
20998;DHT22;10657;51.276;6.390;2023-04-24T01:41:55;10.30;99.90
20998;DHT22;10657;51.276;6.390;2023-04-24T01:44:23;10.30;99.90
20998;DHT22;10657;51.276;6.390;2023-04-24T01:46:50;10.40;99.90
20998;DHT22;10657;51.276;6.390;2023-04-24T01:49:17;10.40;99.90
20998;DHT22;10657;51.276;6.390;2023-04-24T01:51:44;10.40;99.90
20998;DHT22;10657;51.276;6.390;2023-04-24T01:54:11;10.40;99.90
20998;DHT22;10657;51.276;6.390;2023-04-24T01:56:41;10.30;99.90
20998;DHT22;10657;51.276;6.390;2023-04-24T01:59:12;10.30;99.90
20998;DHT22;10657;51.276;6.390;2023-04-24T02:01:38;10.40;99.90
20998;DHT22;10657;51.276;6.390;2023-04-24T02:04:06;10.20;99.90
20998;DHT22;10657;51.276;6.390;2023-04-24T02:06:34;10.20;99.90
20998;DHT22;10657;51.276;6.390;2023-04-24T02:09:00;10.30;99.90
20998;DHT22;10657;51.276;6.390;2023-04-24T02:11:27;10.30;99.90
20998;DHT22;10657;51.276;6.390;2023-04-24T02:13:54;10.20;99.90
20998;DHT22;10657;51.276;6.390;2023-04-24T02:16:21;10.30;99.90
20998;DHT22;10657;51.276;6.390;2023-04-24T02:18:47;10.30;99.90
20998;DHT22;10657;51.276;6.390;2023-04-24T02:21:14;10.30;99.90
20998;DHT22;10657;51.276;6.390;2023-04-24T02:23:41;10.40;99.90
20998;DHT22;10657;51.276;6.390;2023-04-24T02:26:08;10.40;99.90
20998;DHT22;10657;51.276;6.390;2023-04-24T02:28:34;10.40;99.90
20998;DHT22;10657;51.276;6.390;2023-04-24T02:31:01;10.30;99.90
20998;DHT22;10657;51.276;6.390;2023-04-24T02:33:28;10.30;99.90
20998;DHT22;10657;51.276;6.390;2023-04-24T02:35:55;10.30;99.90
20998;DHT22;10657;51.276;6.390;2023-04-24T02:38:22;10.40;99.90
20998;DHT22;10657;51.276;6.390;2023-04-24T02:40:49;10.30;99.90
20998;DHT22;10657;51.276;6.390;2023-04-24T02:43:15;10.30;99.90
20998;DHT22;10657;51.276;6.390;2023-04-24T02:45:42;10.20;99.90
20998;DHT22;10657;51.276;6.390;2023-04-24T02:48:08;10.30;99.90
20998;DHT22;10657;51.276;6.390;2023-04-24T02:50:35;10.20;99.90
20998;DHT22;10657;51.276;6.390;2023-04-24T02:53:02;10.40;99.90
20998;DHT22;10657;51.276;6.390;2023-04-24T02:55:29;10.20;99.90
20998;DHT22;10657;51.276;6.390;2023-04-24T02:57:55;10.20;99.90
20998;DHT22;10657;51.276;6.390;2023-04-24T03:00:22;10.20;99.90
20998;DHT22;10657;51.276;6.390;2023-04-24T03:02:49;10.30;99.90
20998;DHT22;10657;51.276;6.390;2023-04-24T03:05:16;10.20;99.90
20998;DHT22;10657;51.276;6.390;2023-04-24T03:07:43;10.30;99.90
20998;DHT22;10657;51.276;6.390;2023-04-24T03:10:09;10.30;99.90
20998;DHT22;10657;51.276;6.390;2023-04-24T03:12:36;10.20;99.90
20998;DHT22;10657;51.276;6.390;2023-04-24T03:15:03;10.30;99.90
20998;DHT22;10657;51.276;6.390;2023-04-24T03:17:29;10.20;99.90
20998;DHT22;10657;51.276;6.390;2023-04-24T03:19:56;10.20;99.90
20998;DHT22;10657;51.276;6.390;2023-04-24T03:22:23;10.20;99.90
20998;DHT22;10657;51.276;6.390;2023-04-24T03:24:49;10.20;99.90
20998;DHT22;10657;51.276;6.390;2023-04-24T03:27:16;10.20;99.90
20998;DHT22;10657;51.276;6.390;2023-04-24T03:29:43;10.20;99.90
20998;DHT22;10657;51.276;6.390;2023-04-24T03:32:10;10.20;99.90
20998;DHT22;10657;51.276;6.390;2023-04-24T03:34:36;10.10;99.90
20998;DHT22;10657;51.276;6.390;2023-04-24T03:37:03;10.20;99.90
20998;DHT22;10657;51.276;6.390;2023-04-24T03:39:30;10.20;99.90
20998;DHT22;10657;51.276;6.390;2023-04-24T03:41:56;10.20;99.90
20998;DHT22;10657;51.276;6.390;2023-04-24T03:44:23;10.20;99.90
20998;DHT22;10657;51.276;6.390;2023-04-24T03:46:49;10.20;99.90
20998;DHT22;10657;51.276;6.390;2023-04-24T03:49:16;10.10;99.90
20998;DHT22;10657;51.276;6.390;2023-04-24T03:51:43;10.20;99.90
20998;DHT22;10657;51.276;6.390;2023-04-24T03:54:09;10.20;99.90
20998;DHT22;10657;51.276;6.390;2023-04-24T03:56:36;10.20;99.90
20998;DHT22;10657;51.276;6.390;2023-04-24T03:59:02;10.10;99.90
20998;DHT22;10657;51.276;6.390;2023-04-24T04:01:29;10.20;99.90
20998;DHT22;10657;51.276;6.390;2023-04-24T04:03:57;10.10;99.90
20998;DHT22;10657;51.276;6.390;2023-04-24T04:06:24;10.10;99.90
20998;DHT22;10657;51.276;6.390;2023-04-24T04:08:50;10.10;99.90
20998;DHT22;10657;51.276;6.390;2023-04-24T04:11:17;10.20;99.90
20998;DHT22;10657;51.276;6.390;2023-04-24T04:13:44;10.20;99.90
20998;DHT22;10657;51.276;6.390;2023-04-24T04:16:10;10.30;99.90
20998;DHT22;10657;51.276;6.390;2023-04-24T04:18:37;10.30;99.90
20998;DHT22;10657;51.276;6.390;2023-04-24T04:21:04;10.20;99.90
20998;DHT22;10657;51.276;6.390;2023-04-24T04:23:30;10.10;99.90
20998;DHT22;10657;51.276;6.390;2023-04-24T04:25:58;10.10;99.90
20998;DHT22;10657;51.276;6.390;2023-04-24T04:28:25;10.10;99.90
20998;DHT22;10657;51.276;6.390;2023-04-24T04:30:51;10.20;99.90
20998;DHT22;10657;51.276;6.390;2023-04-24T04:33:21;10.10;99.90
20998;DHT22;10657;51.276;6.390;2023-04-24T04:35:48;10.00;99.90
20998;DHT22;10657;51.276;6.390;2023-04-24T04:38:16;10.00;99.90
20998;DHT22;10657;51.276;6.390;2023-04-24T04:40:43;9.90;99.90
20998;DHT22;10657;51.276;6.390;2023-04-24T04:43:10;10.00;99.90
20998;DHT22;10657;51.276;6.390;2023-04-24T04:45:37;9.80;99.90
20998;DHT22;10657;51.276;6.390;2023-04-24T04:48:06;9.80;99.90
20998;DHT22;10657;51.276;6.390;2023-04-24T04:50:34;9.80;99.90
20998;DHT22;10657;51.276;6.390;2023-04-24T04:53:01;9.70;99.90
20998;DHT22;10657;51.276;6.390;2023-04-24T04:55:27;9.70;99.90
20998;DHT22;10657;51.276;6.390;2023-04-24T04:57:54;9.80;99.90
20998;DHT22;10657;51.276;6.390;2023-04-24T05:00:22;9.80;99.90
20998;DHT22;10657;51.276;6.390;2023-04-24T05:02:51;9.60;99.90
20998;DHT22;10657;51.276;6.390;2023-04-24T05:05:18;9.60;99.90
20998;DHT22;10657;51.276;6.390;2023-04-24T05:07:45;9.60;99.90
20998;DHT22;10657;51.276;6.390;2023-04-24T05:10:11;9.60;99.90
20998;DHT22;10657;51.276;6.390;2023-04-24T05:12:38;9.50;99.90
20998;DHT22;10657;51.276;6.390;2023-04-24T05:15:05;9.50;99.90
20998;DHT22;10657;51.276;6.390;2023-04-24T05:17:32;9.50;99.90
20998;DHT22;10657;51.276;6.390;2023-04-24T05:19:59;9.60;99.90
20998;DHT22;10657;51.276;6.390;2023-04-24T05:22:25;9.50;99.90
20998;DHT22;10657;51.276;6.390;2023-04-24T05:24:52;9.40;99.90
20998;DHT22;10657;51.276;6.390;2023-04-24T05:27:20;9.40;99.90
20998;DHT22;10657;51.276;6.390;2023-04-24T05:29:47;9.60;99.90
20998;DHT22;10657;51.276;6.390;2023-04-24T05:32:13;9.60;99.90
20998;DHT22;10657;51.276;6.390;2023-04-24T05:34:40;9.50;99.90
20998;DHT22;10657;51.276;6.390;2023-04-24T05:37:06;9.60;99.90
20998;DHT22;10657;51.276;6.390;2023-04-24T05:39:36;9.50;99.90
20998;DHT22;10657;51.276;6.390;2023-04-24T05:42:03;9.50;99.90
20998;DHT22;10657;51.276;6.390;2023-04-24T05:44:31;9.60;99.90
20998;DHT22;10657;51.276;6.390;2023-04-24T05:46:57;9.60;99.90
20998;DHT22;10657;51.276;6.390;2023-04-24T05:49:24;9.80;99.90
20998;DHT22;10657;51.276;6.390;2023-04-24T05:51:51;9.60;99.90
20998;DHT22;10657;51.276;6.390;2023-04-24T05:54:18;9.50;99.90
20998;DHT22;10657;51.276;6.390;2023-04-24T05:56:44;9.60;99.90
20998;DHT22;10657;51.276;6.390;2023-04-24T05:59:11;9.50;99.90
20998;DHT22;10657;51.276;6.390;2023-04-24T06:01:37;9.40;99.90
20998;DHT22;10657;51.276;6.390;2023-04-24T06:04:04;9.40;99.90
20998;DHT22;10657;51.276;6.390;2023-04-24T06:06:32;9.40;99.90
20998;DHT22;10657;51.276;6.390;2023-04-24T06:08:59;9.40;99.90
20998;DHT22;10657;51.276;6.390;2023-04-24T06:11:25;9.40;99.90
20998;DHT22;10657;51.276;6.390;2023-04-24T06:13:52;9.40;99.90
20998;DHT22;10657;51.276;6.390;2023-04-24T06:16:18;9.40;99.90
20998;DHT22;10657;51.276;6.390;2023-04-24T06:18:45;9.30;99.90
20998;DHT22;10657;51.276;6.390;2023-04-24T06:21:13;9.20;99.90
20998;DHT22;10657;51.276;6.390;2023-04-24T06:23:40;9.20;99.90
20998;DHT22;10657;51.276;6.390;2023-04-24T06:26:06;9.20;99.90
20998;DHT22;10657;51.276;6.390;2023-04-24T06:28:33;9.20;99.90
20998;DHT22;10657;51.276;6.390;2023-04-24T06:31:00;9.10;99.90
20998;DHT22;10657;51.276;6.390;2023-04-24T06:33:26;9.10;99.90
20998;DHT22;10657;51.276;6.390;2023-04-24T06:35:53;9.10;99.90
20998;DHT22;10657;51.276;6.390;2023-04-24T06:38:20;9.10;99.90
20998;DHT22;10657;51.276;6.390;2023-04-24T06:40:46;9.10;99.90
20998;DHT22;10657;51.276;6.390;2023-04-24T06:43:13;9.10;99.90
20998;DHT22;10657;51.276;6.390;2023-04-24T06:45:41;9.00;99.90
20998;DHT22;10657;51.276;6.390;2023-04-24T06:48:10;8.90;99.90
20998;DHT22;10657;51.276;6.390;2023-04-24T06:50:36;8.80;99.90
20998;DHT22;10657;51.276;6.390;2023-04-24T06:53:03;8.60;99.90
20998;DHT22;10657;51.276;6.390;2023-04-24T06:55:29;8.50;99.90
20998;DHT22;10657;51.276;6.390;2023-04-24T06:57:56;8.40;99.90
20998;DHT22;10657;51.276;6.390;2023-04-24T07:00:23;8.30;99.90
20998;DHT22;10657;51.276;6.390;2023-04-24T07:02:50;8.20;99.90
20998;DHT22;10657;51.276;6.390;2023-04-24T07:05:17;8.00;99.90
20998;DHT22;10657;51.276;6.390;2023-04-24T07:07:47;7.90;99.90
20998;DHT22;10657;51.276;6.390;2023-04-24T07:10:13;7.80;99.90
20998;DHT22;10657;51.276;6.390;2023-04-24T07:12:41;7.80;99.90
20998;DHT22;10657;51.276;6.390;2023-04-24T07:15:08;7.80;99.90
20998;DHT22;10657;51.276;6.390;2023-04-24T07:17:35;7.60;99.90
20998;DHT22;10657;51.276;6.390;2023-04-24T07:20:01;7.60;99.90
20998;DHT22;10657;51.276;6.390;2023-04-24T07:22:28;7.60;99.90
20998;DHT22;10657;51.276;6.390;2023-04-24T07:24:55;7.60;99.90
20998;DHT22;10657;51.276;6.390;2023-04-24T07:27:22;7.60;99.90
20998;DHT22;10657;51.276;6.390;2023-04-24T07:29:48;7.60;99.90
20998;DHT22;10657;51.276;6.390;2023-04-24T07:32:15;7.70;99.90
20998;DHT22;10657;51.276;6.390;2023-04-24T07:34:42;7.70;99.90
20998;DHT22;10657;51.276;6.390;2023-04-24T07:37:08;7.70;99.90
20998;DHT22;10657;51.276;6.390;2023-04-24T07:39:35;7.70;99.90
20998;DHT22;10657;51.276;6.390;2023-04-24T07:42:02;7.70;99.90
20998;DHT22;10657;51.276;6.390;2023-04-24T07:44:29;7.50;99.90
20998;DHT22;10657;51.276;6.390;2023-04-24T07:46:56;7.60;99.90
20998;DHT22;10657;51.276;6.390;2023-04-24T07:49:23;7.60;99.90
20998;DHT22;10657;51.276;6.390;2023-04-24T07:51:50;7.50;99.90
20998;DHT22;10657;51.276;6.390;2023-04-24T07:54:16;7.60;99.90
20998;DHT22;10657;51.276;6.390;2023-04-24T07:56:43;7.60;99.90
20998;DHT22;10657;51.276;6.390;2023-04-24T07:59:11;7.60;99.90
20998;DHT22;10657;51.276;6.390;2023-04-24T08:01:37;7.70;99.90
20998;DHT22;10657;51.276;6.390;2023-04-24T08:04:04;7.70;99.90
20998;DHT22;10657;51.276;6.390;2023-04-24T08:06:31;7.70;99.90
20998;DHT22;10657;51.276;6.390;2023-04-24T08:08:59;7.70;99.90
20998;DHT22;10657;51.276;6.390;2023-04-24T08:11:27;7.70;99.90
20998;DHT22;10657;51.276;6.390;2023-04-24T08:13:53;7.80;99.90
20998;DHT22;10657;51.276;6.390;2023-04-24T08:16:21;7.80;99.90
20998;DHT22;10657;51.276;6.390;2023-04-24T08:18:50;7.80;99.90
20998;DHT22;10657;51.276;6.390;2023-04-24T08:21:17;7.80;99.90
20998;DHT22;10657;51.276;6.390;2023-04-24T08:23:45;7.80;99.90
20998;DHT22;10657;51.276;6.390;2023-04-24T08:26:12;7.90;99.90
20998;DHT22;10657;51.276;6.390;2023-04-24T08:28:39;7.90;99.90
20998;DHT22;10657;51.276;6.390;2023-04-24T08:31:06;7.90;99.90
20998;DHT22;10657;51.276;6.390;2023-04-24T08:33:33;7.80;99.90
20998;DHT22;10657;51.276;6.390;2023-04-24T08:36:04;7.80;99.90
20998;DHT22;10657;51.276;6.390;2023-04-24T08:38:31;7.80;99.90
20998;DHT22;10657;51.276;6.390;2023-04-24T08:40:59;7.70;99.90
20998;DHT22;10657;51.276;6.390;2023-04-24T08:43:27;7.60;99.90
20998;DHT22;10657;51.276;6.390;2023-04-24T08:45:56;7.60;99.90
20998;DHT22;10657;51.276;6.390;2023-04-24T08:48:23;7.60;99.90
20998;DHT22;10657;51.276;6.390;2023-04-24T08:50:58;7.70;99.90
20998;DHT22;10657;51.276;6.390;2023-04-24T08:53:25;7.80;99.90
20998;DHT22;10657;51.276;6.390;2023-04-24T08:55:54;7.70;99.90
20998;DHT22;10657;51.276;6.390;2023-04-24T08:58:24;7.80;99.90
20998;DHT22;10657;51.276;6.390;2023-04-24T09:00:52;7.80;99.90
20998;DHT22;10657;51.276;6.390;2023-04-24T09:03:21;7.80;99.90
20998;DHT22;10657;51.276;6.390;2023-04-24T09:05:48;7.70;99.90
20998;DHT22;10657;51.276;6.390;2023-04-24T09:08:18;7.60;99.90
20998;DHT22;10657;51.276;6.390;2023-04-24T09:10:45;7.60;99.90
20998;DHT22;10657;51.276;6.390;2023-04-24T09:13:15;7.60;99.90
20998;DHT22;10657;51.276;6.390;2023-04-24T09:15:42;7.60;99.90
20998;DHT22;10657;51.276;6.390;2023-04-24T09:18:09;7.70;99.90
20998;DHT22;10657;51.276;6.390;2023-04-24T09:20:58;7.80;99.90
20998;DHT22;10657;51.276;6.390;2023-04-24T09:23:30;7.80;99.90
20998;DHT22;10657;51.276;6.390;2023-04-24T09:25:58;7.90;99.90
20998;DHT22;10657;51.276;6.390;2023-04-24T09:28:30;7.90;99.90
20998;DHT22;10657;51.276;6.390;2023-04-24T09:31:13;7.90;99.90
20998;DHT22;10657;51.276;6.390;2023-04-24T09:33:57;7.90;99.90
20998;DHT22;10657;51.276;6.390;2023-04-24T09:36:35;8.00;99.90
20998;DHT22;10657;51.276;6.390;2023-04-24T09:39:06;8.00;99.90
20998;DHT22;10657;51.276;6.390;2023-04-24T09:44:19;8.10;99.90
20998;DHT22;10657;51.276;6.390;2023-04-24T09:46:53;8.20;99.90
20998;DHT22;10657;51.276;6.390;2023-04-24T09:49:28;8.10;99.90
20998;DHT22;10657;51.276;6.390;2023-04-24T09:52:11;8.00;99.90
20998;DHT22;10657;51.276;6.390;2023-04-24T09:54:39;8.10;99.90
20998;DHT22;10657;51.276;6.390;2023-04-24T09:57:07;8.10;99.90
20998;DHT22;10657;51.276;6.390;2023-04-24T09:59:34;8.10;99.90
20998;DHT22;10657;51.276;6.390;2023-04-24T10:02:03;8.30;99.90
20998;DHT22;10657;51.276;6.390;2023-04-24T10:04:54;8.40;99.90
20998;DHT22;10657;51.276;6.390;2023-04-24T10:07:25;8.40;99.90
20998;DHT22;10657;51.276;6.390;2023-04-24T10:09:52;8.40;99.90
20998;DHT22;10657;51.276;6.390;2023-04-24T10:12:19;8.40;99.90
20998;DHT22;10657;51.276;6.390;2023-04-24T10:14:46;8.40;99.90
20998;DHT22;10657;51.276;6.390;2023-04-24T10:17:14;8.30;99.90
20998;DHT22;10657;51.276;6.390;2023-04-24T10:19:42;8.20;99.90
20998;DHT22;10657;51.276;6.390;2023-04-24T10:22:10;8.20;99.90
20998;DHT22;10657;51.276;6.390;2023-04-24T10:24:36;8.30;99.90
20998;DHT22;10657;51.276;6.390;2023-04-24T10:27:05;8.20;99.90
20998;DHT22;10657;51.276;6.390;2023-04-24T10:29:32;8.30;99.90
20998;DHT22;10657;51.276;6.390;2023-04-24T10:32:01;8.30;99.90
20998;DHT22;10657;51.276;6.390;2023-04-24T10:34:28;8.30;99.90
20998;DHT22;10657;51.276;6.390;2023-04-24T10:36:56;8.50;99.90
20998;DHT22;10657;51.276;6.390;2023-04-24T10:39:24;8.60;99.90
20998;DHT22;10657;51.276;6.390;2023-04-24T10:41:54;8.70;99.90
20998;DHT22;10657;51.276;6.390;2023-04-24T10:44:24;8.90;99.90
20998;DHT22;10657;51.276;6.390;2023-04-24T10:46:55;8.70;99.90
20998;DHT22;10657;51.276;6.390;2023-04-24T10:49:29;8.60;99.90
20998;DHT22;10657;51.276;6.390;2023-04-24T10:52:01;8.50;99.90
20998;DHT22;10657;51.276;6.390;2023-04-24T10:54:44;8.50;99.90
20998;DHT22;10657;51.276;6.390;2023-04-24T11:00:20;8.50;99.90
20998;DHT22;10657;51.276;6.390;2023-04-24T11:02:47;8.50;99.90
20998;DHT22;10657;51.276;6.390;2023-04-24T11:05:17;8.50;99.90
20998;DHT22;10657;51.276;6.390;2023-04-24T11:08:13;8.70;99.90
20998;DHT22;10657;51.276;6.390;2023-04-24T11:10:44;8.90;99.90
20998;DHT22;10657;51.276;6.390;2023-04-24T11:13:15;9.10;99.90
20998;DHT22;10657;51.276;6.390;2023-04-24T11:15:42;9.30;99.90
20998;DHT22;10657;51.276;6.390;2023-04-24T11:18:14;9.40;99.90
20998;DHT22;10657;51.276;6.390;2023-04-24T11:20:45;9.40;99.90
20998;DHT22;10657;51.276;6.390;2023-04-24T11:23:13;9.30;99.90
20998;DHT22;10657;51.276;6.390;2023-04-24T11:25:41;9.40;99.90
20998;DHT22;10657;51.276;6.390;2023-04-24T11:28:14;9.30;99.90
20998;DHT22;10657;51.276;6.390;2023-04-24T11:30:42;9.20;99.90
20998;DHT22;10657;51.276;6.390;2023-04-24T11:33:09;9.20;99.90
20998;DHT22;10657;51.276;6.390;2023-04-24T11:35:39;9.20;99.90
20998;DHT22;10657;51.276;6.390;2023-04-24T11:38:07;9.10;99.90
20998;DHT22;10657;51.276;6.390;2023-04-24T11:40:37;9.10;99.90
20998;DHT22;10657;51.276;6.390;2023-04-24T11:43:05;9.10;99.90
20998;DHT22;10657;51.276;6.390;2023-04-24T11:45:33;9.10;99.90
20998;DHT22;10657;51.276;6.390;2023-04-24T11:48:00;9.20;99.90
20998;DHT22;10657;51.276;6.390;2023-04-24T11:50:27;9.40;99.90
20998;DHT22;10657;51.276;6.390;2023-04-24T11:52:55;9.50;99.90
20998;DHT22;10657;51.276;6.390;2023-04-24T11:57:50;9.60;99.90
20998;DHT22;10657;51.276;6.390;2023-04-24T12:00:19;9.70;99.90
20998;DHT22;10657;51.276;6.390;2023-04-24T12:02:47;9.70;99.90
20998;DHT22;10657;51.276;6.390;2023-04-24T12:05:26;9.60;99.90
20998;DHT22;10657;51.276;6.390;2023-04-24T12:07:54;9.70;99.90
20998;DHT22;10657;51.276;6.390;2023-04-24T12:10:25;9.70;99.90
20998;DHT22;10657;51.276;6.390;2023-04-24T12:12:53;9.80;99.90
20998;DHT22;10657;51.276;6.390;2023-04-24T12:15:20;10.00;99.90
20998;DHT22;10657;51.276;6.390;2023-04-24T12:17:48;10.10;99.90
20998;DHT22;10657;51.276;6.390;2023-04-24T12:20:15;10.20;99.90
20998;DHT22;10657;51.276;6.390;2023-04-24T12:22:48;10.20;99.90
20998;DHT22;10657;51.276;6.390;2023-04-24T12:25:17;10.30;99.90
20998;DHT22;10657;51.276;6.390;2023-04-24T12:27:46;10.30;99.90
20998;DHT22;10657;51.276;6.390;2023-04-24T12:30:15;10.30;99.90
20998;DHT22;10657;51.276;6.390;2023-04-24T12:32:44;10.20;99.90
20998;DHT22;10657;51.276;6.390;2023-04-24T12:35:12;10.20;99.90
20998;DHT22;10657;51.276;6.390;2023-04-24T12:37:42;10.20;99.90
20998;DHT22;10657;51.276;6.390;2023-04-24T12:40:13;10.20;99.90
20998;DHT22;10657;51.276;6.390;2023-04-24T12:42:48;10.20;99.90
20998;DHT22;10657;51.276;6.390;2023-04-24T12:45:16;10.30;99.90
20998;DHT22;10657;51.276;6.390;2023-04-24T12:47:44;10.40;99.90
20998;DHT22;10657;51.276;6.390;2023-04-24T12:50:13;10.40;99.90
20998;DHT22;10657;51.276;6.390;2023-04-24T12:52:40;10.50;99.90
20998;DHT22;10657;51.276;6.390;2023-04-24T12:55:08;10.60;99.90
20998;DHT22;10657;51.276;6.390;2023-04-24T12:57:36;10.70;99.90
20998;DHT22;10657;51.276;6.390;2023-04-24T13:00:05;10.50;99.90
20998;DHT22;10657;51.276;6.390;2023-04-24T13:02:32;10.50;99.90
20998;DHT22;10657;51.276;6.390;2023-04-24T13:05:00;10.40;99.90
20998;DHT22;10657;51.276;6.390;2023-04-24T13:07:27;10.30;99.90
20998;DHT22;10657;51.276;6.390;2023-04-24T13:09:55;10.40;99.90
20998;DHT22;10657;51.276;6.390;2023-04-24T13:12:21;10.40;99.90
20998;DHT22;10657;51.276;6.390;2023-04-24T13:14:50;10.40;99.90
20998;DHT22;10657;51.276;6.390;2023-04-24T13:17:17;10.40;99.90
20998;DHT22;10657;51.276;6.390;2023-04-24T13:19:44;10.40;99.90
20998;DHT22;10657;51.276;6.390;2023-04-24T13:22:12;10.30;99.90
20998;DHT22;10657;51.276;6.390;2023-04-24T13:24:39;10.30;99.90
20998;DHT22;10657;51.276;6.390;2023-04-24T13:27:08;10.20;99.90
20998;DHT22;10657;51.276;6.390;2023-04-24T13:29:36;10.40;99.90
20998;DHT22;10657;51.276;6.390;2023-04-24T13:32:03;10.40;99.90
20998;DHT22;10657;51.276;6.390;2023-04-24T13:34:30;10.40;99.90
20998;DHT22;10657;51.276;6.390;2023-04-24T13:36:57;10.40;99.90
20998;DHT22;10657;51.276;6.390;2023-04-24T13:39:25;10.40;99.90
20998;DHT22;10657;51.276;6.390;2023-04-24T13:41:54;10.50;99.90
20998;DHT22;10657;51.276;6.390;2023-04-24T13:44:22;10.50;99.90
20998;DHT22;10657;51.276;6.390;2023-04-24T13:46:52;10.70;99.90
20998;DHT22;10657;51.276;6.390;2023-04-24T13:49:21;10.70;99.90
20998;DHT22;10657;51.276;6.390;2023-04-24T13:51:48;10.80;99.90
20998;DHT22;10657;51.276;6.390;2023-04-24T13:54:14;10.80;99.90
20998;DHT22;10657;51.276;6.390;2023-04-24T13:56:41;10.70;99.90
20998;DHT22;10657;51.276;6.390;2023-04-24T13:59:08;10.70;99.90
20998;DHT22;10657;51.276;6.390;2023-04-24T14:01:35;10.70;99.90
20998;DHT22;10657;51.276;6.390;2023-04-24T14:04:02;10.70;99.90
20998;DHT22;10657;51.276;6.390;2023-04-24T14:06:29;10.60;99.90
20998;DHT22;10657;51.276;6.390;2023-04-24T14:08:56;10.60;99.90
20998;DHT22;10657;51.276;6.390;2023-04-24T14:11:22;10.60;99.90
20998;DHT22;10657;51.276;6.390;2023-04-24T14:13:49;10.70;99.90
20998;DHT22;10657;51.276;6.390;2023-04-24T14:16:16;10.80;99.90
20998;DHT22;10657;51.276;6.390;2023-04-24T14:18:43;10.70;99.90
20998;DHT22;10657;51.276;6.390;2023-04-24T14:21:10;10.70;99.90
20998;DHT22;10657;51.276;6.390;2023-04-24T14:23:36;10.70;99.90
20998;DHT22;10657;51.276;6.390;2023-04-24T14:26:03;11.00;99.90
20998;DHT22;10657;51.276;6.390;2023-04-24T14:28:29;11.20;99.90
20998;DHT22;10657;51.276;6.390;2023-04-24T14:30:56;11.00;99.90
20998;DHT22;10657;51.276;6.390;2023-04-24T14:33:23;10.90;99.90
20998;DHT22;10657;51.276;6.390;2023-04-24T14:35:50;11.00;99.90
20998;DHT22;10657;51.276;6.390;2023-04-24T14:38:16;11.00;99.90
20998;DHT22;10657;51.276;6.390;2023-04-24T14:40:43;11.00;99.90
20998;DHT22;10657;51.276;6.390;2023-04-24T14:43:30;11.10;99.90
20998;DHT22;10657;51.276;6.390;2023-04-24T14:45:56;11.20;99.90
20998;DHT22;10657;51.276;6.390;2023-04-24T14:48:23;11.30;99.90
20998;DHT22;10657;51.276;6.390;2023-04-24T14:50:50;11.30;99.90
20998;DHT22;10657;51.276;6.390;2023-04-24T14:53:16;11.50;99.90
20998;DHT22;10657;51.276;6.390;2023-04-24T14:55:43;11.30;99.90
20998;DHT22;10657;51.276;6.390;2023-04-24T14:58:10;11.30;99.90
20998;DHT22;10657;51.276;6.390;2023-04-24T15:00:37;11.60;99.90
20998;DHT22;10657;51.276;6.390;2023-04-24T15:03:03;12.00;99.90
20998;DHT22;10657;51.276;6.390;2023-04-24T15:05:31;12.70;99.90
20998;DHT22;10657;51.276;6.390;2023-04-24T15:07:58;12.90;99.90
20998;DHT22;10657;51.276;6.390;2023-04-24T15:10:25;12.50;99.90
20998;DHT22;10657;51.276;6.390;2023-04-24T15:12:52;12.60;99.90
20998;DHT22;10657;51.276;6.390;2023-04-24T15:15:19;12.20;99.90
20998;DHT22;10657;51.276;6.390;2023-04-24T15:17:46;12.10;99.90
20998;DHT22;10657;51.276;6.390;2023-04-24T15:20:12;11.90;99.90
20998;DHT22;10657;51.276;6.390;2023-04-24T15:22:39;11.90;99.90
20998;DHT22;10657;51.276;6.390;2023-04-24T15:25:06;12.70;99.90
20998;DHT22;10657;51.276;6.390;2023-04-24T15:27:41;13.10;99.90
20998;DHT22;10657;51.276;6.390;2023-04-24T15:30:08;13.30;99.90
20998;DHT22;10657;51.276;6.390;2023-04-24T15:32:35;13.40;99.90
20998;DHT22;10657;51.276;6.390;2023-04-24T15:35:02;13.20;99.90
20998;DHT22;10657;51.276;6.390;2023-04-24T15:37:35;13.30;99.90
20998;DHT22;10657;51.276;6.390;2023-04-24T15:40:02;13.20;99.90
20998;DHT22;10657;51.276;6.390;2023-04-24T15:42:31;13.40;99.90
20998;DHT22;10657;51.276;6.390;2023-04-24T15:44:58;12.80;99.90
20998;DHT22;10657;51.276;6.390;2023-04-24T15:47:25;12.30;99.90
20998;DHT22;10657;51.276;6.390;2023-04-24T15:49:52;12.00;99.90